Birch — E5U2637 — position and weather

sailwx.info

Track history (hours):
 
Tides and Currents Weather Stations Pressure Air Temp Water Temp Dewpoint Dewpoint Depression Visibility Wind Speed Wind Dir Waves Ship Positions

Birch

Last reported at 2018-Jan-11 18:59 UTC. Time now 2018-Jan-18 12:19 UTC.
Position N 37°24' E 023°58'.

Length 80 m; draft 4.7 m.

Type: Cargo ship. MMSI: 518690000.

Date/timePositionNaut miles runAvg speedWind from/ knotsBaromVisibWave heightAir tempDewpointWater temp
2018-Jan-11 18:59N 37°24' E 023°58'4 7.4
2018-Jan-11 18:28N 37°27' E 024°01'5 7.3
2018-Jan-11 17:48N 37°31' E 024°04'2 7.3
2018-Jan-11 17:31N 37°32' E 024°06'4 7.1
2018-Jan-11 16:58N 37°36' E 024°09'4 7.5
2018-Jan-11 16:27N 37°39' E 024°11'3 7.4
2018-Jan-11 16:00N 37°42' E 024°14'4 7.6
2018-Jan-11 15:30N 37°44' E 024°17'11 7.5
2018-Jan-11 14:03N 37°52' E 024°27'0 7.2
2018-Jan-11 14:00N 37°52' E 024°28'4 7.1
2018-Jan-11 13:25N 37°55' E 024°31'  
2018-Jan-08 04:08N 43°35' E 028°52'1 7.0
2018-Jan-08 04:00N 43°36' E 028°52'3 6.8
2018-Jan-08 03:30N 43°40' E 028°51'3 6.8
2018-Jan-08 03:00N 43°43' E 028°51'3 6.9
2018-Jan-08 02:30N 43°46' E 028°51'3 7.0
2018-Jan-08 02:00N 43°50' E 028°50'3 6.8
2018-Jan-08 01:30N 43°53' E 028°50'3 6.7
2018-Jan-08 01:00N 43°57' E 028°49'3 6.8
2018-Jan-08 00:30N 43°59' E 028°47'3 7.0
2018-Jan-08 00:00N 44°02' E 028°44'4 7.0
2018-Jan-07 23:30N 44°06' E 028°43'3 5.5
2018-Jan-07 23:00N 44°06' E 028°39'1 1.3
2018-Jan-07 22:30N 44°06' E 028°38'0 0.0
2018-Jan-07 22:00N 44°06' E 028°38'0 0.0
2018-Jan-07 21:30N 44°06' E 028°38'0 0.0
2018-Jan-07 21:00N 44°06' E 028°38'0 0.0
2018-Jan-07 20:27N 44°06' E 028°38'0 0.0
2018-Jan-07 20:00N 44°06' E 028°38'0 0.0
2018-Jan-07 19:30N 44°06' E 028°38'0 0.0
2018-Jan-07 18:57N 44°06' E 028°38'0 0.0
2018-Jan-07 18:30N 44°06' E 028°38'0 0.0
2018-Jan-07 18:00N 44°06' E 028°38'0 0.0
2018-Jan-07 17:30N 44°06' E 028°38'0 0.0
2018-Jan-07 17:00N 44°06' E 028°38'0 0.0
2018-Jan-07 16:27N 44°06' E 028°38'0 0.0
2018-Jan-07 16:00N 44°06' E 028°38'0 0.0
2018-Jan-07 15:30N 44°06' E 028°38'0 0.0
2018-Jan-07 15:00N 44°06' E 028°38'0 0.0
2018-Jan-07 14:24N 44°06' E 028°38'0 0.0
2018-Jan-07 14:00N 44°06' E 028°38'0 0.0
2018-Jan-07 13:30N 44°06' E 028°38'0 0.0
2018-Jan-07 13:00N 44°06' E 028°38'0 0.0
2018-Jan-07 12:27N 44°06' E 028°38'0 0.0
2018-Jan-07 12:00N 44°06' E 028°38'0 0.0
2018-Jan-07 11:30N 44°06' E 028°38'0 0.0
2018-Jan-07 11:00N 44°06' E 028°38'0 0.0
2018-Jan-07 10:30N 44°06' E 028°38'0 0.0
2018-Jan-07 10:00N 44°06' E 028°38'0 0.0
2018-Jan-07 09:30N 44°06' E 028°38'0 0.0
2018-Jan-07 09:00N 44°06' E 028°38'0 0.0
2018-Jan-07 08:29N 44°06' E 028°38'0 0.0
2018-Jan-07 07:59N 44°06' E 028°38'0 0.0
2018-Jan-07 07:29N 44°06' E 028°38'0 0.0
2018-Jan-07 06:59N 44°06' E 028°38'0 0.0
2018-Jan-07 06:26N 44°06' E 028°38'0 0.0
2018-Jan-07 05:56N 44°06' E 028°38'0 0.0
2018-Jan-07 05:26N 44°06' E 028°38'0 0.0
2018-Jan-07 04:56N 44°06' E 028°38'0 0.0
2018-Jan-07 04:26N 44°06' E 028°38'0 0.0
2018-Jan-07 03:56N 44°06' E 028°38'0 0.0
2018-Jan-07 03:20N 44°06' E 028°38'0 0.1
2018-Jan-07 02:59N 44°06' E 028°38'0 0.0
2018-Jan-07 02:26N 44°06' E 028°38'0 0.0
2018-Jan-07 01:59N 44°06' E 028°38'0 0.0
2018-Jan-07 01:29N 44°06' E 028°38'0 0.0
2018-Jan-07 00:29N 44°06' E 028°38'0 0.0
2018-Jan-06 23:53N 44°06' E 028°38'0 0.0
2018-Jan-06 23:26N 44°06' E 028°38'0 0.0
2018-Jan-06 22:59N 44°06' E 028°38'0 0.0
2018-Jan-06 22:29N 44°06' E 028°38'0 0.0
2018-Jan-06 21:59N 44°06' E 028°38'0 0.0
2018-Jan-06 21:29N 44°06' E 028°38'0 0.0
2018-Jan-06 20:59N 44°06' E 028°38'0 0.0
2018-Jan-06 20:29N 44°06' E 028°38'0 0.0
2018-Jan-06 19:59N 44°06' E 028°38'0 0.0
2018-Jan-06 19:29N 44°06' E 028°38'0 0.0
2018-Jan-06 18:59N 44°06' E 028°38'0 0.0
2018-Jan-06 18:29N 44°06' E 028°38'0 0.0
2018-Jan-06 17:59N 44°06' E 028°38'0 0.0
2018-Jan-06 17:29N 44°06' E 028°38'0 0.0
2018-Jan-06 16:59N 44°06' E 028°38'0 0.0
2018-Jan-06 16:29N 44°06' E 028°38'0 0.0
2018-Jan-06 15:59N 44°06' E 028°38'0 0.0
2018-Jan-06 15:29N 44°06' E 028°38'0 0.0
2018-Jan-06 14:59N 44°06' E 028°38'0 0.0
2018-Jan-06 14:29N 44°06' E 028°38'0 0.0
2018-Jan-06 13:59N 44°06' E 028°38'0 0.0
2018-Jan-06 13:29N 44°06' E 028°38'0 0.0
2018-Jan-06 12:59N 44°06' E 028°38'0 0.0
2018-Jan-06 12:29N 44°06' E 028°38'0 0.0
2018-Jan-06 11:59N 44°06' E 028°38'0 0.0
2018-Jan-06 11:26N 44°06' E 028°38'0 0.0
2018-Jan-06 10:59N 44°06' E 028°38'0 0.0
2018-Jan-06 10:29N 44°06' E 028°38'0 0.0
2018-Jan-06 09:59N 44°06' E 028°38'0 0.0
2018-Jan-06 09:29N 44°06' E 028°38'0 0.0
2018-Jan-06 08:59N 44°06' E 028°38'0 0.0
2018-Jan-06 08:29N 44°06' E 028°38'0 0.0
2018-Jan-06 07:59N 44°06' E 028°38'0 0.0
2018-Jan-06 07:23N 44°06' E 028°38'0 0.0
2018-Jan-06 06:59N 44°06' E 028°38'0 0.0
2018-Jan-06 06:29N 44°06' E 028°38'0 0.0
2018-Jan-06 05:59N 44°06' E 028°38'0 0.0
2018-Jan-06 05:29N 44°06' E 028°38'0 0.0
2018-Jan-06 04:59N 44°06' E 028°38'0 0.0
2018-Jan-06 04:23N 44°06' E 028°38'0 0.0
2018-Jan-06 03:59N 44°06' E 028°38'0 0.0
2018-Jan-06 03:29N 44°06' E 028°38'0 0.0
2018-Jan-06 02:59N 44°06' E 028°38'0 0.0
2018-Jan-06 02:29N 44°06' E 028°38'0 0.0
2018-Jan-06 01:59N 44°06' E 028°38'0 0.0
2018-Jan-06 01:29N 44°06' E 028°38'0 0.0
2018-Jan-06 00:59N 44°06' E 028°38'0 0.0
2018-Jan-06 00:29N 44°06' E 028°38'0 0.0
2018-Jan-05 23:59N 44°06' E 028°38'0 0.0
2018-Jan-05 23:29N 44°06' E 028°38'0 0.0
2018-Jan-05 22:59N 44°06' E 028°38'0 0.0
2018-Jan-05 22:26N 44°06' E 028°38'0 0.0
2018-Jan-05 21:59N 44°06' E 028°38'0 0.0
2018-Jan-05 21:28N 44°06' E 028°38'0 0.0
2018-Jan-05 20:58N 44°06' E 028°38'0 0.0
2018-Jan-05 20:28N 44°06' E 028°38'0 0.0
2018-Jan-05 19:58N 44°06' E 028°38'0 0.0
2018-Jan-05 19:28N 44°06' E 028°38'0 0.0
2018-Jan-05 18:58N 44°06' E 028°38'0 0.0
2018-Jan-05 18:28N 44°06' E 028°38'0 0.0
2018-Jan-05 17:58N 44°06' E 028°38'0 0.0
2018-Jan-05 17:25N 44°06' E 028°38'0 0.0
2018-Jan-05 16:58N 44°06' E 028°38'0 0.0
2018-Jan-05 16:22N 44°06' E 028°38'0 0.0
2018-Jan-05 15:55N 44°06' E 028°38'0 0.0
2018-Jan-05 15:28N 44°06' E 028°38'0 0.0
2018-Jan-05 14:58N 44°06' E 028°38'0 0.2
2018-Jan-05 14:29N 44°06' E 028°38'3 6.0
2018-Jan-05 14:00N 44°06' E 028°42'3 5.4
2018-Jan-05 13:30N 44°08' E 028°45'0 0.6
2018-Jan-05 13:00N 44°08' E 028°45'0 0.0
2018-Jan-05 12:30N 44°08' E 028°45'0 0.0
2018-Jan-05 12:00N 44°08' E 028°45'0 0.0
2018-Jan-05 11:30N 44°08' E 028°45'0 0.1
2018-Jan-05 11:00N 44°08' E 028°45'0 0.0
2018-Jan-05 10:30N 44°08' E 028°45'0 0.0
2018-Jan-05 10:00N 44°08' E 028°45'0 0.0
2018-Jan-05 09:30N 44°08' E 028°45'0 0.0
2018-Jan-05 09:00N 44°08' E 028°45'0 0.1
2018-Jan-05 08:30N 44°08' E 028°45'0 0.1
2018-Jan-05 08:00N 44°08' E 028°45'0 0.0
2018-Jan-05 07:30N 44°08' E 028°45'0 0.0
2018-Jan-05 07:00N 44°08' E 028°45'0 0.0
2018-Jan-05 06:30N 44°08' E 028°45'0 0.0
2018-Jan-05 06:00N 44°08' E 028°45'0 0.0
2018-Jan-05 05:30N 44°08' E 028°45'0 0.0
2018-Jan-05 05:00N 44°08' E 028°45'0 0.0
2018-Jan-05 04:30N 44°08' E 028°45'0 0.0
2018-Jan-05 04:00N 44°08' E 028°45'0 0.1
2018-Jan-05 03:30N 44°08' E 028°45'0 0.0
2018-Jan-05 03:00N 44°08' E 028°45'0 0.0
2018-Jan-05 02:30N 44°08' E 028°45'0 0.0
2018-Jan-05 02:00N 44°08' E 028°45'0 0.0
2018-Jan-05 01:30N 44°08' E 028°45'0 0.0
2018-Jan-05 01:00N 44°08' E 028°45'0 0.0
2018-Jan-05 00:30N 44°08' E 028°45'0 0.0
2018-Jan-05 00:00N 44°08' E 028°45'0 0.0
2018-Jan-04 23:30N 44°08' E 028°45'0 0.0
2018-Jan-04 23:00N 44°08' E 028°45'0 0.0
2018-Jan-04 22:30N 44°08' E 028°45'0 0.0
2018-Jan-04 22:00N 44°08' E 028°45'0 0.0
2018-Jan-04 21:30N 44°08' E 028°45'0 0.0
2018-Jan-04 21:00N 44°08' E 028°45'0 0.0
2018-Jan-04 20:30N 44°08' E 028°45'0 0.0
2018-Jan-04 20:00N 44°08' E 028°45'0 0.0
2018-Jan-04 19:30N 44°08' E 028°45'0 0.0
2018-Jan-04 19:00N 44°08' E 028°45'0 0.0
2018-Jan-04 18:30N 44°08' E 028°45'0 0.0
2018-Jan-04 18:00N 44°08' E 028°45'0 0.0
2018-Jan-04 17:30N 44°08' E 028°45'0 0.0
2018-Jan-04 17:00N 44°08' E 028°45'0 0.0
2018-Jan-04 16:30N 44°08' E 028°45'0 0.0
2018-Jan-04 16:00N 44°08' E 028°45'0 0.0
2018-Jan-04 15:30N 44°08' E 028°45'0 0.0
2018-Jan-04 15:00N 44°08' E 028°45'0 0.0
2018-Jan-04 14:30N 44°08' E 028°45'0 0.0
2018-Jan-04 14:00N 44°08' E 028°45'0 0.0
2018-Jan-04 13:26N 44°08' E 028°45'0 0.1
2018-Jan-04 12:59N 44°08' E 028°45'0 0.0
2018-Jan-04 12:29N 44°08' E 028°45'0 0.1
2018-Jan-04 11:59N 44°08' E 028°45'0 0.1
2018-Jan-04 11:29N 44°08' E 028°45'0 0.1
2018-Jan-04 10:59N 44°08' E 028°45'0 0.1
2018-Jan-04 10:29N 44°08' E 028°45'0 0.1
2018-Jan-04 09:59N 44°08' E 028°45'0 0.0
2018-Jan-04 09:29N 44°08' E 028°45'0 0.1
2018-Jan-04 08:59N 44°08' E 028°44'0 0.0
2018-Jan-04 08:29N 44°08' E 028°44'0 0.0
2018-Jan-04 07:59N 44°08' E 028°44'0 0.0
2018-Jan-04 07:29N 44°08' E 028°44'0 0.0
2018-Jan-04 06:59N 44°08' E 028°44'0 0.0
2018-Jan-04 06:29N 44°08' E 028°44'0 0.0
2018-Jan-04 05:59N 44°08' E 028°44'0 0.1
2018-Jan-04 05:30N 44°08' E 028°45'0 0.0
2018-Jan-04 05:00N 44°08' E 028°45'0 0.0
2018-Jan-04 04:30N 44°08' E 028°44'0 0.0
2018-Jan-04 04:00N 44°08' E 028°45'0 0.0
2018-Jan-04 03:30N 44°08' E 028°45'0 0.1
2018-Jan-04 03:00N 44°08' E 028°45'0 0.0
2018-Jan-04 02:30N 44°08' E 028°45'0 0.0
2018-Jan-04 02:00N 44°08' E 028°45'0 0.0
2018-Jan-04 01:30N 44°08' E 028°45'0 0.0
2018-Jan-04 00:59N 44°08' E 028°45'0 0.0
2018-Jan-04 00:29N 44°08' E 028°45'0 0.0
2018-Jan-03 23:59N 44°08' E 028°45'0 0.0
2018-Jan-03 23:29N 44°08' E 028°45'0 0.0
2018-Jan-03 22:59N 44°08' E 028°45'0 0.1
2018-Jan-03 22:29N 44°08' E 028°45'0 0.0
2018-Jan-03 21:59N 44°08' E 028°44'0 0.1
2018-Jan-03 21:29N 44°08' E 028°45'0 0.0
2018-Jan-03 20:59N 44°08' E 028°45'0 0.0
2018-Jan-03 20:29N 44°08' E 028°45'0 0.0
2018-Jan-03 19:59N 44°08' E 028°45'0 0.1
2018-Jan-03 19:29N 44°08' E 028°45'0 0.1
2018-Jan-03 18:59N 44°08' E 028°44'0 0.1
2018-Jan-03 18:29N 44°08' E 028°44'0 0.0
2018-Jan-03 17:59N 44°08' E 028°44'0 0.0
2018-Jan-03 17:29N 44°08' E 028°44'0 0.0
2018-Jan-03 16:59N 44°08' E 028°44'0 0.1
2018-Jan-03 16:29N 44°08' E 028°45'0 0.1
2018-Jan-03 15:59N 44°08' E 028°45'0 0.0
2018-Jan-03 15:29N 44°08' E 028°45'0 0.0
2018-Jan-03 14:59N 44°08' E 028°45'0 0.0
2018-Jan-03 14:29N 44°08' E 028°45'0 0.0
2018-Jan-03 13:56N 44°08' E 028°45'0 0.0
2018-Jan-03 13:29N 44°08' E 028°45'0 0.0
2018-Jan-03 12:59N 44°08' E 028°45'0 0.0
2018-Jan-03 12:29N 44°08' E 028°45'0 0.0
2018-Jan-03 11:53N 44°08' E 028°45'0 0.0
2018-Jan-03 11:29N 44°08' E 028°45'0 0.0
2018-Jan-03 10:59N 44°08' E 028°45'0 0.0
2018-Jan-03 10:29N 44°08' E 028°45'0 0.0
2018-Jan-03 09:59N 44°08' E 028°45'0 0.0
2018-Jan-03 09:29N 44°08' E 028°45'0 0.1
2018-Jan-03 08:59N 44°08' E 028°44'0 0.0
2018-Jan-03 08:17N 44°08' E 028°44'0 0.0
2018-Jan-03 07:56N 44°08' E 028°44'0 0.1
2018-Jan-03 07:29N 44°08' E 028°44'0 0.0
2018-Jan-03 06:59N 44°08' E 028°44'0 0.0
2018-Jan-03 06:29N 44°08' E 028°44'0 0.1
2018-Jan-03 05:59N 44°08' E 028°44'0 0.1
2018-Jan-03 05:30N 44°08' E 028°44'0 0.0
2018-Jan-03 05:00N 44°08' E 028°44'0 0.0
2018-Jan-03 04:30N 44°08' E 028°44'0 0.1
2018-Jan-03 04:00N 44°08' E 028°45'0 0.1
2018-Jan-03 03:30N 44°08' E 028°44'0 0.1
2018-Jan-03 03:00N 44°08' E 028°45'0 0.1
2018-Jan-03 02:30N 44°08' E 028°44'0 0.0
2018-Jan-03 02:00N 44°08' E 028°44'0 0.1
2018-Jan-03 01:30N 44°08' E 028°44'0 0.0
2018-Jan-03 01:00N 44°08' E 028°44'0 0.0
2018-Jan-03 00:30N 44°08' E 028°44'0 0.0
2018-Jan-03 00:00N 44°08' E 028°44'0 0.0
2018-Jan-02 23:30N 44°08' E 028°44'0 0.0
2018-Jan-02 22:57N 44°08' E 028°44'0 0.0
2018-Jan-02 22:30N 44°08' E 028°44'0 0.1
2018-Jan-02 22:00N 44°08' E 028°44'0 0.0
2018-Jan-02 21:30N 44°08' E 028°44'0 0.0
2018-Jan-02 21:00N 44°08' E 028°44'0 0.0
2018-Jan-02 20:30N 44°08' E 028°44'0 0.0
2018-Jan-02 20:00N 44°08' E 028°44'0 0.0
2018-Jan-02 19:27N 44°08' E 028°44'0 0.0
2018-Jan-02 18:53N 44°08' E 028°44'0 0.0
2018-Jan-02 18:29N 44°08' E 028°44'0 0.0
2018-Jan-02 17:59N 44°08' E 028°44'0 0.0
2018-Jan-02 17:29N 44°08' E 028°44'0 0.0
2018-Jan-02 16:59N 44°08' E 028°44'0 0.0
2018-Jan-02 16:29N 44°08' E 028°44'0 0.0
2018-Jan-02 15:59N 44°08' E 028°44'0 0.0
2018-Jan-02 15:29N 44°08' E 028°44'0 0.0
2018-Jan-02 14:56N 44°08' E 028°44'0 0.0
2018-Jan-02 14:29N 44°08' E 028°44'0 0.0
2018-Jan-02 13:58N 44°08' E 028°44'0 0.0
2018-Jan-02 13:28N 44°08' E 028°44'0 0.0
2018-Jan-02 12:58N 44°08' E 028°44'0 0.0
2018-Jan-02 12:28N 44°08' E 028°44'0 0.0
2018-Jan-02 11:58N 44°08' E 028°44'0 0.0
2018-Jan-02 11:28N 44°08' E 028°44'0 0.0
2018-Jan-02 10:58N 44°08' E 028°44'0 0.0
2018-Jan-02 10:28N 44°08' E 028°44'0 0.1
2018-Jan-02 09:58N 44°08' E 028°44'0 0.0
2018-Jan-02 09:31N 44°08' E 028°44'0 0.0
2018-Jan-02 08:28N 44°08' E 028°44'0 0.1
2018-Jan-02 07:58N 44°08' E 028°44'0 0.1
2018-Jan-02 07:31N 44°08' E 028°44'0 0.0
2018-Jan-02 06:54N 44°08' E 028°44'0 0.0
2018-Jan-02 06:30N 44°08' E 028°44'0 0.0
2018-Jan-02 06:00N 44°08' E 028°44'0 0.0
2018-Jan-02 05:30N 44°08' E 028°45'0 0.0
2018-Jan-02 04:30N 44°08' E 028°45'0 0.0
2018-Jan-02 04:00N 44°08' E 028°45'0 0.0
2018-Jan-02 03:30N 44°08' E 028°45'0 0.1
2018-Jan-02 03:00N 44°08' E 028°44'0 0.1
2018-Jan-02 02:30N 44°08' E 028°45'0 0.0
2018-Jan-02 02:00N 44°08' E 028°45'0 0.1
2018-Jan-02 01:30N 44°08' E 028°45'0 0.1
2018-Jan-02 01:00N 44°08' E 028°45'0 0.0
2018-Jan-02 00:30N 44°08' E 028°45'0 0.0
2018-Jan-02 00:00N 44°08' E 028°45'0 0.0
2018-Jan-01 23:30N 44°08' E 028°45'0 0.0
2018-Jan-01 23:00N 44°08' E 028°45'0 0.0
2018-Jan-01 22:30N 44°08' E 028°45'0 0.0
2018-Jan-01 22:00N 44°08' E 028°45'0 0.0
2018-Jan-01 21:30N 44°08' E 028°45'0 0.0
2018-Jan-01 21:00N 44°08' E 028°45'0 0.0
2018-Jan-01 20:30N 44°08' E 028°45'0 0.0
2018-Jan-01 20:00N 44°08' E 028°45'0 0.0
2018-Jan-01 19:30N 44°08' E 028°45'0 0.0
2018-Jan-01 19:00N 44°08' E 028°45'  
Track history (hours):
 
Tides and Currents Weather Stations Pressure Air Temp Water Temp Dewpoint Dewpoint Depression Visibility Wind Speed Wind Dir Waves Ship Positions

Birch

Last reported at 2018-Jan-11 18:59 UTC. Time now 2018-Jan-18 12:19 UTC.
Position N 37°24' E 023°58'.

Length 80 m; draft 4.7 m.

Type: Cargo ship. MMSI: 518690000.

Date/timePositionNaut miles runAvg speedWind from/ knotsBaromVisibWave heightAir tempDewpointWater temp
2018-Jan-11 18:59N 37°24' E 023°58'4 7.4
2018-Jan-11 18:28N 37°27' E 024°01'5 7.3
2018-Jan-11 17:48N 37°31' E 024°04'2 7.3
2018-Jan-11 17:31N 37°32' E 024°06'4 7.1
2018-Jan-11 16:58N 37°36' E 024°09'4 7.5
2018-Jan-11 16:27N 37°39' E 024°11'3 7.4
2018-Jan-11 16:00N 37°42' E 024°14'4 7.6
2018-Jan-11 15:30N 37°44' E 024°17'11 7.5
2018-Jan-11 14:03N 37°52' E 024°27'0 7.2
2018-Jan-11 14:00N 37°52' E 024°28'4 7.1
2018-Jan-11 13:25N 37°55' E 024°31'  
2018-Jan-08 04:08N 43°35' E 028°52'1 7.0
2018-Jan-08 04:00N 43°36' E 028°52'3 6.8
2018-Jan-08 03:30N 43°40' E 028°51'3 6.8
2018-Jan-08 03:00N 43°43' E 028°51'3 6.9
2018-Jan-08 02:30N 43°46' E 028°51'3 7.0
2018-Jan-08 02:00N 43°50' E 028°50'3 6.8
2018-Jan-08 01:30N 43°53' E 028°50'3 6.7
2018-Jan-08 01:00N 43°57' E 028°49'3 6.8
2018-Jan-08 00:30N 43°59' E 028°47'3 7.0
2018-Jan-08 00:00N 44°02' E 028°44'4 7.0
2018-Jan-07 23:30N 44°06' E 028°43'3 5.5
2018-Jan-07 23:00N 44°06' E 028°39'1 1.3
2018-Jan-07 22:30N 44°06' E 028°38'0 0.0
2018-Jan-07 22:00N 44°06' E 028°38'0 0.0
2018-Jan-07 21:30N 44°06' E 028°38'0 0.0
2018-Jan-07 21:00N 44°06' E 028°38'0 0.0
2018-Jan-07 20:27N 44°06' E 028°38'0 0.0
2018-Jan-07 20:00N 44°06' E 028°38'0 0.0
2018-Jan-07 19:30N 44°06' E 028°38'0 0.0
2018-Jan-07 18:57N 44°06' E 028°38'0 0.0
2018-Jan-07 18:30N 44°06' E 028°38'0 0.0
2018-Jan-07 18:00N 44°06' E 028°38'0 0.0
2018-Jan-07 17:30N 44°06' E 028°38'0 0.0
2018-Jan-07 17:00N 44°06' E 028°38'0 0.0
2018-Jan-07 16:27N 44°06' E 028°38'0 0.0
2018-Jan-07 16:00N 44°06' E 028°38'0 0.0
2018-Jan-07 15:30N 44°06' E 028°38'0 0.0
2018-Jan-07 15:00N 44°06' E 028°38'0 0.0
2018-Jan-07 14:24N 44°06' E 028°38'0 0.0
2018-Jan-07 14:00N 44°06' E 028°38'0 0.0
2018-Jan-07 13:30N 44°06' E 028°38'0 0.0
2018-Jan-07 13:00N 44°06' E 028°38'0 0.0
2018-Jan-07 12:27N 44°06' E 028°38'0 0.0
2018-Jan-07 12:00N 44°06' E 028°38'0 0.0
2018-Jan-07 11:30N 44°06' E 028°38'0 0.0
2018-Jan-07 11:00N 44°06' E 028°38'0 0.0
2018-Jan-07 10:30N 44°06' E 028°38'0 0.0
2018-Jan-07 10:00N 44°06' E 028°38'0 0.0
2018-Jan-07 09:30N 44°06' E 028°38'0 0.0
2018-Jan-07 09:00N 44°06' E 028°38'0 0.0
2018-Jan-07 08:29N 44°06' E 028°38'0 0.0
2018-Jan-07 07:59N 44°06' E 028°38'0 0.0
2018-Jan-07 07:29N 44°06' E 028°38'0 0.0
2018-Jan-07 06:59N 44°06' E 028°38'0 0.0
2018-Jan-07 06:26N 44°06' E 028°38'0 0.0
2018-Jan-07 05:56N 44°06' E 028°38'0 0.0
2018-Jan-07 05:26N 44°06' E 028°38'0 0.0
2018-Jan-07 04:56N 44°06' E 028°38'0 0.0
2018-Jan-07 04:26N 44°06' E 028°38'0 0.0
2018-Jan-07 03:56N 44°06' E 028°38'0 0.0
2018-Jan-07 03:20N 44°06' E 028°38'0 0.1
2018-Jan-07 02:59N 44°06' E 028°38'0 0.0
2018-Jan-07 02:26N 44°06' E 028°38'0 0.0
2018-Jan-07 01:59N 44°06' E 028°38'0 0.0
2018-Jan-07 01:29N 44°06' E 028°38'0 0.0
2018-Jan-07 00:29N 44°06' E 028°38'0 0.0
2018-Jan-06 23:53N 44°06' E 028°38'0 0.0
2018-Jan-06 23:26N 44°06' E 028°38'0 0.0
2018-Jan-06 22:59N 44°06' E 028°38'0 0.0
2018-Jan-06 22:29N 44°06' E 028°38'0 0.0
2018-Jan-06 21:59N 44°06' E 028°38'0 0.0
2018-Jan-06 21:29N 44°06' E 028°38'0 0.0
2018-Jan-06 20:59N 44°06' E 028°38'0 0.0
2018-Jan-06 20:29N 44°06' E 028°38'0 0.0
2018-Jan-06 19:59N 44°06' E 028°38'0 0.0
2018-Jan-06 19:29N 44°06' E 028°38'0 0.0
2018-Jan-06 18:59N 44°06' E 028°38'0 0.0
2018-Jan-06 18:29N 44°06' E 028°38'0 0.0
2018-Jan-06 17:59N 44°06' E 028°38'0 0.0
2018-Jan-06 17:29N 44°06' E 028°38'0 0.0
2018-Jan-06 16:59N 44°06' E 028°38'0 0.0
2018-Jan-06 16:29N 44°06' E 028°38'0 0.0
2018-Jan-06 15:59N 44°06' E 028°38'0 0.0
2018-Jan-06 15:29N 44°06' E 028°38'0 0.0
2018-Jan-06 14:59N 44°06' E 028°38'0 0.0
2018-Jan-06 14:29N 44°06' E 028°38'0 0.0
2018-Jan-06 13:59N 44°06' E 028°38'0 0.0
2018-Jan-06 13:29N 44°06' E 028°38'0 0.0
2018-Jan-06 12:59N 44°06' E 028°38'0 0.0
2018-Jan-06 12:29N 44°06' E 028°38'0 0.0
2018-Jan-06 11:59N 44°06' E 028°38'0 0.0
2018-Jan-06 11:26N 44°06' E 028°38'0 0.0
2018-Jan-06 10:59N 44°06' E 028°38'0 0.0
2018-Jan-06 10:29N 44°06' E 028°38'0 0.0
2018-Jan-06 09:59N 44°06' E 028°38'0 0.0
2018-Jan-06 09:29N 44°06' E 028°38'0 0.0
2018-Jan-06 08:59N 44°06' E 028°38'0 0.0
2018-Jan-06 08:29N 44°06' E 028°38'0 0.0
2018-Jan-06 07:59N 44°06' E 028°38'0 0.0
2018-Jan-06 07:23N 44°06' E 028°38'0 0.0
2018-Jan-06 06:59N 44°06' E 028°38'0 0.0
2018-Jan-06 06:29N 44°06' E 028°38'0 0.0
2018-Jan-06 05:59N 44°06' E 028°38'0 0.0
2018-Jan-06 05:29N 44°06' E 028°38'0 0.0
2018-Jan-06 04:59N 44°06' E 028°38'0 0.0
2018-Jan-06 04:23N 44°06' E 028°38'0 0.0
2018-Jan-06 03:59N 44°06' E 028°38'0 0.0
2018-Jan-06 03:29N 44°06' E 028°38'0 0.0
2018-Jan-06 02:59N 44°06' E 028°38'0 0.0
2018-Jan-06 02:29N 44°06' E 028°38'0 0.0
2018-Jan-06 01:59N 44°06' E 028°38'0 0.0
2018-Jan-06 01:29N 44°06' E 028°38'0 0.0
2018-Jan-06 00:59N 44°06' E 028°38'0 0.0
2018-Jan-06 00:29N 44°06' E 028°38'0 0.0
2018-Jan-05 23:59N 44°06' E 028°38'0 0.0
2018-Jan-05 23:29N 44°06' E 028°38'0 0.0
2018-Jan-05 22:59N 44°06' E 028°38'0 0.0
2018-Jan-05 22:26N 44°06' E 028°38'0 0.0
2018-Jan-05 21:59N 44°06' E 028°38'0 0.0
2018-Jan-05 21:28N 44°06' E 028°38'0 0.0
2018-Jan-05 20:58N 44°06' E 028°38'0 0.0
2018-Jan-05 20:28N 44°06' E 028°38'0 0.0
2018-Jan-05 19:58N 44°06' E 028°38'0 0.0
2018-Jan-05 19:28N 44°06' E 028°38'0 0.0
2018-Jan-05 18:58N 44°06' E 028°38'0 0.0
2018-Jan-05 18:28N 44°06' E 028°38'0 0.0
2018-Jan-05 17:58N 44°06' E 028°38'0 0.0
2018-Jan-05 17:25N 44°06' E 028°38'0 0.0
2018-Jan-05 16:58N 44°06' E 028°38'0 0.0
2018-Jan-05 16:22N 44°06' E 028°38'0 0.0
2018-Jan-05 15:55N 44°06' E 028°38'0 0.0
2018-Jan-05 15:28N 44°06' E 028°38'0 0.0
2018-Jan-05 14:58N 44°06' E 028°38'0 0.2
2018-Jan-05 14:29N 44°06' E 028°38'3 6.0
2018-Jan-05 14:00N 44°06' E 028°42'3 5.4
2018-Jan-05 13:30N 44°08' E 028°45'0 0.6
2018-Jan-05 13:00N 44°08' E 028°45'0 0.0
2018-Jan-05 12:30N 44°08' E 028°45'0 0.0
2018-Jan-05 12:00N 44°08' E 028°45'0 0.0
2018-Jan-05 11:30N 44°08' E 028°45'0 0.1
2018-Jan-05 11:00N 44°08' E 028°45'0 0.0
2018-Jan-05 10:30N 44°08' E 028°45'0 0.0
2018-Jan-05 10:00N 44°08' E 028°45'0 0.0
2018-Jan-05 09:30N 44°08' E 028°45'0 0.0
2018-Jan-05 09:00N 44°08' E 028°45'0 0.1
2018-Jan-05 08:30N 44°08' E 028°45'0 0.1
2018-Jan-05 08:00N 44°08' E 028°45'0 0.0
2018-Jan-05 07:30N 44°08' E 028°45'0 0.0
2018-Jan-05 07:00N 44°08' E 028°45'0 0.0
2018-Jan-05 06:30N 44°08' E 028°45'0 0.0
2018-Jan-05 06:00N 44°08' E 028°45'0 0.0
2018-Jan-05 05:30N 44°08' E 028°45'0 0.0
2018-Jan-05 05:00N 44°08' E 028°45'0 0.0
2018-Jan-05 04:30N 44°08' E 028°45'0 0.0
2018-Jan-05 04:00N 44°08' E 028°45'0 0.1
2018-Jan-05 03:30N 44°08' E 028°45'0 0.0
2018-Jan-05 03:00N 44°08' E 028°45'0 0.0
2018-Jan-05 02:30N 44°08' E 028°45'0 0.0
2018-Jan-05 02:00N 44°08' E 028°45'0 0.0
2018-Jan-05 01:30N 44°08' E 028°45'0 0.0
2018-Jan-05 01:00N 44°08' E 028°45'0 0.0
2018-Jan-05 00:30N 44°08' E 028°45'0 0.0
2018-Jan-05 00:00N 44°08' E 028°45'0 0.0
2018-Jan-04 23:30N 44°08' E 028°45'0 0.0
2018-Jan-04 23:00N 44°08' E 028°45'0 0.0
2018-Jan-04 22:30N 44°08' E 028°45'0 0.0
2018-Jan-04 22:00N 44°08' E 028°45'0 0.0
2018-Jan-04 21:30N 44°08' E 028°45'0 0.0
2018-Jan-04 21:00N 44°08' E 028°45'0 0.0
2018-Jan-04 20:30N 44°08' E 028°45'0 0.0
2018-Jan-04 20:00N 44°08' E 028°45'0 0.0
2018-Jan-04 19:30N 44°08' E 028°45'0 0.0
2018-Jan-04 19:00N 44°08' E 028°45'0 0.0
2018-Jan-04 18:30N 44°08' E 028°45'0 0.0
2018-Jan-04 18:00N 44°08' E 028°45'0 0.0
2018-Jan-04 17:30N 44°08' E 028°45'0 0.0
2018-Jan-04 17:00N 44°08' E 028°45'0 0.0
2018-Jan-04 16:30N 44°08' E 028°45'0 0.0
2018-Jan-04 16:00N 44°08' E 028°45'0 0.0
2018-Jan-04 15:30N 44°08' E 028°45'0 0.0
2018-Jan-04 15:00N 44°08' E 028°45'0 0.0
2018-Jan-04 14:30N 44°08' E 028°45'0 0.0
2018-Jan-04 14:00N 44°08' E 028°45'0 0.0
2018-Jan-04 13:26N 44°08' E 028°45'0 0.1
2018-Jan-04 12:59N 44°08' E 028°45'0 0.0
2018-Jan-04 12:29N 44°08' E 028°45'0 0.1
2018-Jan-04 11:59N 44°08' E 028°45'0 0.1
2018-Jan-04 11:29N 44°08' E 028°45'0 0.1
2018-Jan-04 10:59N 44°08' E 028°45'0 0.1
2018-Jan-04 10:29N 44°08' E 028°45'0 0.1
2018-Jan-04 09:59N 44°08' E 028°45'0 0.0
2018-Jan-04 09:29N 44°08' E 028°45'0 0.1
2018-Jan-04 08:59N 44°08' E 028°44'0 0.0
2018-Jan-04 08:29N 44°08' E 028°44'0 0.0
2018-Jan-04 07:59N 44°08' E 028°44'0 0.0
2018-Jan-04 07:29N 44°08' E 028°44'0 0.0
2018-Jan-04 06:59N 44°08' E 028°44'0 0.0
2018-Jan-04 06:29N 44°08' E 028°44'0 0.0
2018-Jan-04 05:59N 44°08' E 028°44'0 0.1
2018-Jan-04 05:30N 44°08' E 028°45'0 0.0
2018-Jan-04 05:00N 44°08' E 028°45'0 0.0
2018-Jan-04 04:30N 44°08' E 028°44'0 0.0
2018-Jan-04 04:00N 44°08' E 028°45'0 0.0
2018-Jan-04 03:30N 44°08' E 028°45'0 0.1
2018-Jan-04 03:00N 44°08' E 028°45'0 0.0
2018-Jan-04 02:30N 44°08' E 028°45'0 0.0
2018-Jan-04 02:00N 44°08' E 028°45'0 0.0
2018-Jan-04 01:30N 44°08' E 028°45'0 0.0
2018-Jan-04 00:59N 44°08' E 028°45'0 0.0
2018-Jan-04 00:29N 44°08' E 028°45'0 0.0
2018-Jan-03 23:59N 44°08' E 028°45'0 0.0
2018-Jan-03 23:29N 44°08' E 028°45'0 0.0
2018-Jan-03 22:59N 44°08' E 028°45'0 0.1
2018-Jan-03 22:29N 44°08' E 028°45'0 0.0
2018-Jan-03 21:59N 44°08' E 028°44'0 0.1
2018-Jan-03 21:29N 44°08' E 028°45'0 0.0
2018-Jan-03 20:59N 44°08' E 028°45'0 0.0
2018-Jan-03 20:29N 44°08' E 028°45'0 0.0
2018-Jan-03 19:59N 44°08' E 028°45'0 0.1
2018-Jan-03 19:29N 44°08' E 028°45'0 0.1
2018-Jan-03 18:59N 44°08' E 028°44'0 0.1
2018-Jan-03 18:29N 44°08' E 028°44'0 0.0
2018-Jan-03 17:59N 44°08' E 028°44'0 0.0
2018-Jan-03 17:29N 44°08' E 028°44'0 0.0
2018-Jan-03 16:59N 44°08' E 028°44'0 0.1
2018-Jan-03 16:29N 44°08' E 028°45'0 0.1
2018-Jan-03 15:59N 44°08' E 028°45'0 0.0
2018-Jan-03 15:29N 44°08' E 028°45'0 0.0
2018-Jan-03 14:59N 44°08' E 028°45'0 0.0
2018-Jan-03 14:29N 44°08' E 028°45'0 0.0
2018-Jan-03 13:56N 44°08' E 028°45'0 0.0
2018-Jan-03 13:29N 44°08' E 028°45'0 0.0
2018-Jan-03 12:59N 44°08' E 028°45'0 0.0
2018-Jan-03 12:29N 44°08' E 028°45'0 0.0
2018-Jan-03 11:53N 44°08' E 028°45'0 0.0
2018-Jan-03 11:29N 44°08' E 028°45'0 0.0
2018-Jan-03 10:59N 44°08' E 028°45'0 0.0
2018-Jan-03 10:29N 44°08' E 028°45'0 0.0
2018-Jan-03 09:59N 44°08' E 028°45'0 0.0
2018-Jan-03 09:29N 44°08' E 028°45'0 0.1
2018-Jan-03 08:59N 44°08' E 028°44'0 0.0
2018-Jan-03 08:17N 44°08' E 028°44'0 0.0
2018-Jan-03 07:56N 44°08' E 028°44'0 0.1
2018-Jan-03 07:29N 44°08' E 028°44'0 0.0
2018-Jan-03 06:59N 44°08' E 028°44'0 0.0
2018-Jan-03 06:29N 44°08' E 028°44'0 0.1
2018-Jan-03 05:59N 44°08' E 028°44'0 0.1
2018-Jan-03 05:30N 44°08' E 028°44'0 0.0
2018-Jan-03 05:00N 44°08' E 028°44'0 0.0
2018-Jan-03 04:30N 44°08' E 028°44'0 0.1
2018-Jan-03 04:00N 44°08' E 028°45'0 0.1
2018-Jan-03 03:30N 44°08' E 028°44'0 0.1
2018-Jan-03 03:00N 44°08' E 028°45'0 0.1
2018-Jan-03 02:30N 44°08' E 028°44'0 0.0
2018-Jan-03 02:00N 44°08' E 028°44'0 0.1
2018-Jan-03 01:30N 44°08' E 028°44'0 0.0
2018-Jan-03 01:00N 44°08' E 028°44'0 0.0
2018-Jan-03 00:30N 44°08' E 028°44'0 0.0
2018-Jan-03 00:00N 44°08' E 028°44'0 0.0
2018-Jan-02 23:30N 44°08' E 028°44'0 0.0
2018-Jan-02 22:57N 44°08' E 028°44'0 0.0
2018-Jan-02 22:30N 44°08' E 028°44'0 0.1
2018-Jan-02 22:00N 44°08' E 028°44'0 0.0
2018-Jan-02 21:30N 44°08' E 028°44'0 0.0
2018-Jan-02 21:00N 44°08' E 028°44'0 0.0
2018-Jan-02 20:30N 44°08' E 028°44'0 0.0
2018-Jan-02 20:00N 44°08' E 028°44'0 0.0
2018-Jan-02 19:27N 44°08' E 028°44'0 0.0
2018-Jan-02 18:53N 44°08' E 028°44'0 0.0
2018-Jan-02 18:29N 44°08' E 028°44'0 0.0
2018-Jan-02 17:59N 44°08' E 028°44'0 0.0
2018-Jan-02 17:29N 44°08' E 028°44'0 0.0
2018-Jan-02 16:59N 44°08' E 028°44'0 0.0
2018-Jan-02 16:29N 44°08' E 028°44'0 0.0
2018-Jan-02 15:59N 44°08' E 028°44'0 0.0
2018-Jan-02 15:29N 44°08' E 028°44'0 0.0
2018-Jan-02 14:56N 44°08' E 028°44'0 0.0
2018-Jan-02 14:29N 44°08' E 028°44'0 0.0
2018-Jan-02 13:58N 44°08' E 028°44'0 0.0
2018-Jan-02 13:28N 44°08' E 028°44'0 0.0
2018-Jan-02 12:58N 44°08' E 028°44'0 0.0
2018-Jan-02 12:28N 44°08' E 028°44'0 0.0
2018-Jan-02 11:58N 44°08' E 028°44'0 0.0
2018-Jan-02 11:28N 44°08' E 028°44'0 0.0
2018-Jan-02 10:58N 44°08' E 028°44'0 0.0
2018-Jan-02 10:28N 44°08' E 028°44'0 0.1
2018-Jan-02 09:58N 44°08' E 028°44'0 0.0
2018-Jan-02 09:31N 44°08' E 028°44'0 0.0
2018-Jan-02 08:28N 44°08' E 028°44'0 0.1
2018-Jan-02 07:58N 44°08' E 028°44'0 0.1
2018-Jan-02 07:31N 44°08' E 028°44'0 0.0
2018-Jan-02 06:54N 44°08' E 028°44'0 0.0
2018-Jan-02 06:30N 44°08' E 028°44'0 0.0
2018-Jan-02 06:00N 44°08' E 028°44'0 0.0
2018-Jan-02 05:30N 44°08' E 028°45'0 0.0
2018-Jan-02 04:30N 44°08' E 028°45'0 0.0
2018-Jan-02 04:00N 44°08' E 028°45'0 0.0
2018-Jan-02 03:30N 44°08' E 028°45'0 0.1
2018-Jan-02 03:00N 44°08' E 028°44'0 0.1
2018-Jan-02 02:30N 44°08' E 028°45'0 0.0
2018-Jan-02 02:00N 44°08' E 028°45'0 0.1
2018-Jan-02 01:30N 44°08' E 028°45'0 0.1
2018-Jan-02 01:00N 44°08' E 028°45'0 0.0
2018-Jan-02 00:30N 44°08' E 028°45'0 0.0
2018-Jan-02 00:00N 44°08' E 028°45'0 0.0
2018-Jan-01 23:30N 44°08' E 028°45'0 0.0
2018-Jan-01 23:00N 44°08' E 028°45'0 0.0
2018-Jan-01 22:30N 44°08' E 028°45'0 0.0
2018-Jan-01 22:00N 44°08' E 028°45'0 0.0
2018-Jan-01 21:30N 44°08' E 028°45'0 0.0
2018-Jan-01 21:00N 44°08' E 028°45'0 0.0
2018-Jan-01 20:30N 44°08' E 028°45'0 0.0
2018-Jan-01 20:00N 44°08' E 028°45'0 0.0
2018-Jan-01 19:30N 44°08' E 028°45'0 0.0
2018-Jan-01 19:00N 44°08' E 028°45'  

Dump ship's entire track history